createdAt,value
2018-07-03T00:00:44.794Z,3.30
2018-07-03T00:03:13.484Z,3.37
2018-07-03T00:05:42.133Z,3.30
2018-07-03T00:08:10.803Z,3.50
2018-07-03T00:10:39.493Z,3.20
2018-07-03T00:13:08.719Z,3.07
2018-07-03T00:15:37.658Z,3.07
2018-07-03T00:18:06.292Z,3.37
2018-07-03T00:20:34.935Z,3.93
2018-07-03T00:23:03.619Z,3.13
2018-07-03T00:25:32.296Z,4.40
2018-07-03T00:28:00.991Z,3.13
2018-07-03T00:30:29.663Z,3.10
2018-07-03T00:32:58.380Z,4.93
2018-07-03T00:35:27.072Z,3.23
2018-07-03T00:37:55.847Z,2.40
2018-07-03T00:40:24.555Z,2.37
2018-07-03T00:42:53.441Z,3.37
2018-07-03T00:45:22.167Z,4.40
2018-07-03T00:47:50.807Z,3.87
2018-07-03T00:50:19.483Z,2.40
2018-07-03T00:52:48.151Z,3.60
2018-07-03T00:55:16.823Z,2.93
2018-07-03T00:57:45.503Z,2.90
2018-07-03T01:00:25.503Z,4.93
2018-07-03T01:02:54.170Z,1.80
2018-07-03T01:05:22.905Z,2.67
2018-07-03T01:07:51.540Z,2.03
2018-07-03T01:10:20.212Z,1.90
2018-07-03T01:12:49.019Z,1.97
2018-07-03T01:15:17.672Z,2.80
2018-07-03T01:17:47.275Z,2.20
2018-07-03T01:20:15.985Z,2.47
2018-07-03T01:22:44.680Z,2.40
2018-07-03T01:25:13.324Z,3.47
2018-07-03T01:27:41.950Z,2.70
2018-07-03T01:30:10.603Z,2.20
2018-07-03T01:32:39.441Z,2.60
2018-07-03T01:35:08.080Z,3.83
2018-07-03T01:37:36.739Z,2.70
2018-07-03T01:40:05.410Z,4.57
2018-07-03T01:42:34.068Z,1.80
2018-07-03T01:45:02.772Z,1.83
2018-07-03T01:47:31.379Z,3.27
2018-07-03T01:50:00.078Z,2.10
2018-07-03T01:52:35.262Z,3.03
2018-07-03T01:55:03.982Z,2.23
2018-07-03T01:57:32.604Z,2.03
2018-07-03T02:00:01.424Z,1.93
2018-07-03T02:02:30.055Z,2.07
2018-07-03T02:04:58.695Z,1.93
2018-07-03T02:07:27.364Z,3.00
2018-07-03T02:09:56.081Z,2.43
2018-07-03T02:12:24.784Z,2.00
2018-07-03T02:14:53.442Z,2.43
2018-07-03T02:17:22.128Z,3.10
2018-07-03T02:19:50.843Z,4.30
2018-07-03T02:22:19.516Z,2.47
2018-07-03T02:24:48.232Z,2.30
2018-07-03T02:27:17.064Z,3.23
2018-07-03T02:29:45.629Z,3.03
2018-07-03T02:32:14.311Z,2.10
2018-07-03T02:34:42.996Z,2.70
2018-07-03T02:37:11.662Z,2.00
2018-07-03T02:39:40.299Z,3.73
2018-07-03T02:42:08.991Z,5.60
2018-07-03T02:44:37.669Z,4.27
2018-07-03T02:47:06.428Z,3.60
2018-07-03T02:49:35.106Z,2.90
2018-07-03T02:52:03.814Z,3.57
2018-07-03T02:54:32.569Z,3.77
2018-07-03T02:57:01.278Z,5.00
2018-07-03T02:59:29.940Z,2.20
2018-07-03T03:01:58.659Z,4.60
2018-07-03T03:04:27.279Z,5.10
2018-07-03T03:06:55.991Z,1.90
2018-07-03T03:09:24.718Z,2.83
2018-07-03T03:11:53.400Z,2.70
2018-07-03T03:14:22.096Z,5.27
2018-07-03T03:16:50.767Z,3.30
2018-07-03T03:19:19.724Z,3.47
2018-07-03T03:21:48.417Z,3.77
2018-07-03T03:24:17.103Z,3.23
2018-07-03T03:26:45.927Z,5.10
2018-07-03T03:29:14.583Z,3.57
2018-07-03T03:31:43.240Z,2.70
2018-07-03T03:34:11.988Z,3.70
2018-07-03T03:36:40.669Z,3.00
2018-07-03T03:39:09.523Z,2.77
2018-07-03T03:41:38.274Z,2.73
2018-07-03T03:44:06.933Z,4.03
2018-07-03T03:46:35.638Z,3.27
2018-07-03T03:49:04.347Z,4.30
2018-07-03T03:51:33.112Z,3.60
2018-07-03T03:54:01.787Z,5.20
2018-07-03T03:56:30.443Z,3.50
2018-07-03T03:58:59.132Z,4.47
2018-07-03T04:01:27.820Z,5.63
2018-07-03T04:03:56.490Z,5.63
2018-07-03T04:06:25.383Z,3.80
2018-07-03T04:08:54.228Z,5.10
2018-07-03T04:11:22.940Z,4.37
2018-07-03T04:13:51.603Z,4.60
2018-07-03T04:16:20.241Z,3.00
2018-07-03T04:18:48.981Z,3.50
2018-07-03T04:21:17.615Z,3.13
2018-07-03T04:23:46.852Z,4.60
2018-07-03T04:26:15.518Z,3.73
2018-07-03T04:28:44.410Z,3.43
2018-07-03T04:31:13.051Z,4.80
2018-07-03T04:33:41.727Z,4.27
2018-07-03T04:36:10.473Z,5.33
2018-07-03T04:38:39.119Z,6.00
2018-07-03T04:41:07.802Z,3.40
2018-07-03T04:43:36.428Z,3.90
2018-07-03T04:46:05.078Z,2.73
2018-07-03T04:48:33.736Z,4.20
2018-07-03T04:51:02.873Z,5.17
2018-07-03T04:53:31.607Z,2.50
2018-07-03T04:56:00.368Z,2.83
2018-07-03T04:58:29.652Z,3.60
2018-07-03T05:00:58.372Z,3.67
2018-07-03T05:03:27.016Z,3.30
2018-07-03T05:05:55.665Z,2.90
2018-07-03T05:08:24.362Z,2.90
2018-07-03T05:10:53.001Z,3.57
2018-07-03T05:13:21.683Z,3.20
2018-07-03T05:15:50.302Z,2.30
2018-07-03T05:18:19.032Z,2.80
2018-07-03T05:20:47.740Z,3.90
2018-07-03T05:23:16.447Z,4.70
2018-07-03T05:25:45.179Z,3.20
2018-07-03T05:28:13.867Z,4.93
2018-07-03T05:30:42.607Z,3.17
2018-07-03T05:33:11.379Z,3.80
2018-07-03T05:35:40.376Z,2.60
2018-07-03T05:38:09.169Z,2.70
2018-07-03T05:40:37.864Z,4.77
2018-07-03T05:43:06.581Z,2.83
2018-07-03T05:45:35.274Z,4.60
2018-07-03T05:48:03.979Z,2.63
2018-07-03T05:50:32.699Z,2.80
2018-07-03T05:53:01.427Z,4.47
2018-07-03T05:55:30.100Z,2.97
2018-07-03T05:57:58.866Z,3.57
2018-07-03T06:00:27.555Z,2.13
2018-07-03T06:02:56.334Z,4.70
2018-07-03T06:05:25.171Z,3.20
2018-07-03T06:07:53.827Z,3.30
2018-07-03T06:10:22.472Z,2.60
2018-07-03T06:12:51.172Z,3.13
2018-07-03T06:15:19.862Z,2.30
2018-07-03T06:17:48.713Z,2.20
2018-07-03T06:20:17.443Z,4.97
2018-07-03T06:22:46.311Z,2.73
2018-07-03T06:25:14.985Z,2.17
2018-07-03T06:27:43.884Z,5.40
2018-07-03T06:30:12.652Z,2.20
2018-07-03T06:32:41.597Z,2.77
2018-07-03T06:35:10.448Z,2.13
2018-07-03T06:37:39.184Z,6.80
2018-07-03T06:40:07.852Z,7.33
2018-07-03T06:42:36.584Z,3.47
2018-07-03T06:45:05.851Z,4.13
2018-07-03T06:47:34.643Z,4.73
2018-07-03T06:50:03.413Z,2.87
2018-07-03T06:52:32.077Z,3.27
2018-07-03T06:55:00.812Z,2.63
2018-07-03T06:57:30.294Z,4.27
2018-07-03T06:59:58.983Z,4.40
2018-07-03T07:02:27.688Z,4.00
2018-07-03T07:04:56.356Z,4.30
2018-07-03T07:07:25.060Z,10.43
2018-07-03T07:09:53.844Z,2.90
2018-07-03T07:12:22.578Z,3.40
2018-07-03T07:14:51.353Z,6.20
2018-07-03T07:17:20.143Z,1.93
2018-07-03T07:19:48.854Z,2.27
2018-07-03T07:22:17.572Z,1.90
2018-07-03T07:24:46.262Z,5.00
2018-07-03T07:27:15.108Z,2.23
2018-07-03T07:29:43.803Z,2.83
2018-07-03T07:32:12.531Z,2.73
2018-07-03T07:34:41.385Z,3.57
2018-07-03T07:37:10.147Z,4.73
2018-07-03T07:39:38.924Z,2.37
2018-07-03T07:42:07.683Z,2.17
2018-07-03T07:44:36.340Z,2.47
2018-07-03T07:47:05.087Z,3.97
2018-07-03T07:49:34.470Z,3.50
2018-07-03T07:52:03.176Z,3.03
2018-07-03T07:54:31.941Z,2.50
2018-07-03T07:57:00.667Z,5.27
2018-07-03T07:59:29.371Z,4.33
2018-07-03T08:01:58.047Z,3.33
2018-07-03T08:04:26.727Z,4.20
2018-07-03T08:06:55.407Z,3.00
2018-07-03T08:09:24.134Z,5.50
2018-07-03T08:11:53.511Z,2.00
2018-07-03T08:14:22.249Z,2.43
2018-07-03T08:16:50.910Z,3.67
2018-07-03T08:19:19.543Z,2.37
2018-07-03T08:21:48.231Z,2.10
2018-07-03T08:24:16.957Z,3.30
2018-07-03T08:26:45.627Z,2.60
2018-07-03T08:29:14.295Z,2.50
2018-07-03T08:31:43.047Z,4.23
2018-07-03T08:34:12.131Z,4.47
2018-07-03T08:36:40.855Z,2.50
2018-07-03T08:39:11.150Z,2.43
2018-07-03T08:41:39.800Z,2.93
2018-07-03T08:44:08.525Z,2.83
2018-07-03T08:46:37.295Z,2.97
2018-07-03T08:49:06.996Z,2.57
2018-07-03T08:51:36.056Z,5.37
2018-07-03T08:54:04.784Z,2.57
2018-07-03T08:56:33.674Z,2.23
2018-07-03T08:59:02.356Z,2.77
2018-07-03T09:01:31.115Z,1.70
2018-07-03T09:03:59.808Z,2.73
2018-07-03T09:06:28.460Z,3.00
2018-07-03T09:08:57.147Z,3.60
2018-07-03T09:11:25.876Z,2.23
2018-07-03T09:13:54.502Z,3.70
2018-07-03T09:16:23.269Z,2.93
2018-07-03T09:18:51.937Z,2.43
2018-07-03T09:21:20.576Z,1.93
2018-07-03T09:23:49.260Z,4.63
2018-07-03T09:26:18.109Z,1.77
2018-07-03T09:28:46.799Z,2.57
2018-07-03T09:31:15.443Z,4.47
2018-07-03T09:33:44.148Z,5.27
2018-07-03T09:36:12.848Z,3.73
2018-07-03T09:38:41.504Z,2.57
2018-07-03T09:41:10.277Z,1.77
2018-07-03T09:43:38.967Z,3.97
2018-07-03T09:46:07.626Z,3.13
2018-07-03T09:48:36.263Z,3.03
2018-07-03T09:51:04.895Z,3.13
2018-07-03T09:53:33.675Z,8.20
2018-07-03T09:56:02.634Z,6.23
2018-07-03T09:58:31.436Z,8.03
2018-07-03T10:01:04.301Z,5.93
2018-07-03T10:03:33.185Z,4.43
2018-07-03T10:06:01.875Z,3.37
2018-07-03T10:08:30.752Z,4.60
2018-07-03T10:10:59.553Z,2.67
2018-07-03T10:13:28.219Z,2.33
2018-07-03T10:15:57.338Z,3.63
2018-07-03T10:18:26.174Z,3.30
2018-07-03T10:20:54.823Z,2.70
2018-07-03T10:23:23.537Z,4.83
2018-07-03T10:25:52.179Z,3.77
2018-07-03T10:28:20.852Z,4.30
2018-07-03T10:30:49.551Z,2.50
2018-07-03T10:33:18.232Z,3.87
2018-07-03T10:35:46.914Z,3.77
2018-07-03T10:38:15.579Z,3.03
2018-07-03T10:40:44.229Z,2.40
2018-07-03T10:43:12.909Z,4.97
2018-07-03T10:45:41.848Z,3.50
2018-07-03T10:48:10.551Z,4.50
2018-07-03T10:50:39.274Z,2.80
2018-07-03T10:53:07.975Z,2.63
2018-07-03T10:55:36.628Z,4.13
2018-07-03T10:58:05.289Z,3.63
2018-07-03T11:00:34.031Z,5.00
2018-07-03T11:03:02.783Z,2.70
2018-07-03T11:05:31.498Z,4.53
2018-07-03T11:08:00.184Z,3.63
2018-07-03T11:10:28.920Z,3.53
2018-07-03T11:12:57.733Z,3.47
2018-07-03T11:15:26.466Z,3.27
2018-07-03T11:17:55.607Z,3.27
2018-07-03T11:20:24.295Z,3.20
2018-07-03T11:22:53.439Z,2.27
2018-07-03T11:25:22.139Z,3.50
2018-07-03T11:27:50.932Z,2.10
2018-07-03T11:30:19.615Z,4.13
2018-07-03T11:32:48.420Z,3.70
2018-07-03T11:35:17.070Z,4.30
2018-07-03T11:37:46.702Z,2.87
2018-07-03T11:40:15.369Z,2.47
2018-07-03T11:42:44.019Z,4.43
2018-07-03T11:45:12.742Z,2.30
2018-07-03T11:47:41.439Z,5.10
2018-07-03T11:50:10.175Z,3.03
2018-07-03T11:52:39.342Z,2.07
2018-07-03T11:55:08.202Z,3.30
2018-07-03T11:57:37.058Z,5.30
2018-07-03T12:00:05.945Z,3.70
2018-07-03T12:02:34.652Z,2.70
2018-07-03T12:05:03.444Z,4.50
2018-07-03T12:07:32.170Z,3.67
2018-07-03T12:10:01.328Z,3.00
2018-07-03T12:12:30.000Z,3.50
2018-07-03T12:14:58.689Z,4.93
2018-07-03T12:17:27.386Z,2.43
2018-07-03T12:19:56.202Z,3.27
2018-07-03T12:22:24.812Z,4.20
2018-07-03T12:24:53.433Z,6.57
2018-07-03T12:27:22.261Z,3.77
2018-07-03T12:29:50.970Z,3.13
2018-07-03T12:32:19.607Z,5.00
2018-07-03T12:34:48.324Z,3.70
2018-07-03T12:37:16.979Z,4.27
2018-07-03T12:39:45.644Z,3.47
2018-07-03T12:42:14.348Z,2.90
2018-07-03T12:44:43.135Z,1.73
2018-07-03T12:47:11.878Z,3.40
2018-07-03T12:49:40.578Z,4.93
2018-07-03T12:52:09.264Z,5.20
2018-07-03T12:54:37.909Z,4.27
2018-07-03T12:57:06.567Z,3.83
2018-07-03T12:59:35.209Z,4.13
2018-07-03T13:02:04.063Z,3.03
2018-07-03T13:04:32.715Z,6.00
2018-07-03T13:07:01.473Z,3.43
2018-07-03T13:09:30.100Z,3.70
2018-07-03T13:11:58.813Z,2.73
2018-07-03T13:14:27.492Z,2.70
2018-07-03T13:16:56.772Z,3.60
2018-07-03T13:19:25.585Z,2.87
2018-07-03T13:21:54.427Z,2.70
2018-07-03T13:24:23.130Z,4.20
2018-07-03T13:26:51.857Z,3.40
2018-07-03T13:29:20.667Z,2.23
2018-07-03T13:31:49.386Z,2.53
2018-07-03T13:34:18.101Z,3.50
2018-07-03T13:36:46.777Z,3.77
2018-07-03T13:39:15.517Z,2.70
2018-07-03T13:41:44.240Z,3.80
2018-07-03T13:44:12.952Z,4.13
2018-07-03T13:46:41.680Z,5.73
2018-07-03T13:49:10.365Z,2.97
2018-07-03T13:51:39.100Z,6.23
2018-07-03T13:54:07.786Z,2.60
2018-07-03T13:56:36.439Z,3.30
2018-07-03T13:59:05.099Z,2.93
2018-07-03T14:01:36.366Z,4.90
2018-07-03T14:04:05.078Z,1.93
2018-07-03T14:06:34.436Z,5.90
2018-07-03T14:09:03.390Z,3.33
2018-07-03T14:11:32.051Z,5.27
2018-07-03T14:14:00.740Z,2.10
2018-07-03T14:16:29.442Z,3.93
2018-07-03T14:18:58.104Z,4.53
2018-07-03T14:21:26.792Z,6.20
2018-07-03T14:23:55.476Z,3.83
2018-07-03T14:26:24.141Z,5.00
2018-07-03T14:28:53.173Z,4.10
2018-07-03T14:31:21.870Z,4.37
2018-07-03T14:33:50.559Z,8.87
2018-07-03T14:36:19.259Z,3.87
2018-07-03T14:38:48.014Z,3.23
2018-07-03T14:41:16.695Z,5.27
2018-07-03T14:43:45.775Z,2.63
2018-07-03T14:46:14.408Z,4.33
2018-07-03T14:48:43.058Z,2.80
2018-07-03T14:51:11.780Z,4.63
2018-07-03T14:53:40.501Z,2.73
2018-07-03T14:56:09.170Z,3.40
2018-07-03T14:58:37.843Z,3.87
2018-07-03T15:01:06.523Z,4.93
2018-07-03T15:03:35.314Z,4.80
2018-07-03T15:06:04.816Z,5.43
2018-07-03T15:08:33.455Z,6.33
2018-07-03T15:11:02.092Z,4.00
2018-07-03T15:13:30.755Z,3.47
2018-07-03T15:15:59.419Z,4.83
2018-07-03T15:18:32.301Z,5.60
2018-07-03T15:21:00.959Z,2.53
2018-07-03T15:23:29.616Z,4.00
2018-07-03T15:25:58.289Z,3.10
2018-07-03T15:28:27.020Z,4.27
2018-07-03T15:30:55.697Z,7.60
2018-07-03T15:33:24.327Z,2.70
2018-07-03T15:35:52.992Z,2.50
2018-07-03T15:38:21.888Z,3.27
2018-07-03T15:40:50.579Z,3.07
2018-07-03T15:43:19.252Z,2.77
2018-07-03T15:45:47.996Z,6.40
2018-07-03T15:48:16.772Z,3.07
2018-07-03T15:50:45.498Z,3.53
2018-07-03T15:53:14.328Z,6.60
2018-07-03T15:55:43.003Z,4.43
2018-07-03T15:58:11.983Z,3.40
2018-07-03T16:00:40.828Z,4.00
2018-07-03T16:03:20.763Z,3.30
2018-07-03T16:06:04.397Z,5.90
2018-07-03T16:08:44.222Z,3.03
2018-07-03T16:11:12.903Z,2.47
2018-07-03T16:13:41.637Z,2.80
2018-07-03T16:16:10.409Z,2.93
2018-07-03T16:18:40.569Z,4.13
2018-07-03T16:21:09.431Z,3.10
2018-07-03T16:23:38.203Z,3.93
2018-07-03T16:26:06.963Z,4.17
2018-07-03T16:28:37.213Z,3.63
2018-07-03T16:31:05.987Z,3.30
2018-07-03T16:33:34.773Z,2.97
2018-07-03T16:36:03.438Z,3.80
2018-07-03T16:38:32.116Z,2.63
2018-07-03T16:41:00.831Z,4.10
2018-07-03T16:43:30.267Z,4.67
2018-07-03T16:45:59.035Z,2.73
2018-07-03T16:48:27.743Z,8.63
2018-07-03T16:50:56.700Z,3.93
2018-07-03T16:53:25.552Z,2.87
2018-07-03T16:55:56.842Z,4.40
2018-07-03T16:58:25.523Z,3.10
2018-07-03T17:00:54.896Z,4.13
2018-07-03T17:03:23.735Z,4.53
2018-07-03T17:05:52.495Z,3.00
2018-07-03T17:08:21.224Z,6.47
2018-07-03T17:10:51.344Z,5.87
2018-07-03T17:13:20.200Z,4.00
2018-07-03T17:15:48.928Z,4.83
2018-07-03T17:18:18.176Z,3.50
2018-07-03T17:20:48.241Z,3.07
2018-07-03T17:23:16.940Z,3.53
2018-07-03T17:25:45.593Z,3.77
2018-07-03T17:28:14.247Z,4.43
2018-07-03T17:30:42.937Z,3.20
2018-07-03T17:33:17.138Z,3.20
2018-07-03T17:35:46.649Z,3.40
2018-07-03T17:38:16.033Z,4.03
2018-07-03T17:40:56.123Z,3.33
2018-07-03T17:44:05.037Z,4.50
2018-07-03T17:46:33.978Z,6.10
2018-07-03T17:49:02.899Z,4.03
2018-07-03T17:51:31.864Z,6.73
2018-07-03T17:54:01.120Z,5.87
2018-07-03T17:56:29.784Z,6.70
2018-07-03T17:58:58.556Z,3.97
2018-07-03T18:01:27.204Z,4.50
2018-07-03T18:03:55.904Z,4.30
2018-07-03T18:06:24.603Z,4.97
2018-07-03T18:08:53.397Z,5.03
2018-07-03T18:11:22.355Z,4.90
2018-07-03T18:13:51.000Z,4.67
2018-07-03T18:16:19.986Z,9.17
2018-07-03T18:18:54.053Z,14.43
2018-07-03T18:21:22.715Z,5.33
2018-07-03T18:23:51.455Z,5.57
2018-07-03T18:26:20.223Z,4.73
2018-07-03T18:28:48.929Z,5.60
2018-07-03T18:31:17.637Z,5.73
2018-07-03T18:33:46.264Z,4.77
2018-07-03T18:36:14.966Z,4.90
2018-07-03T18:38:43.729Z,5.37
2018-07-03T18:41:12.785Z,5.20
2018-07-03T18:43:41.574Z,8.73
2018-07-03T18:46:11.638Z,8.03
2018-07-03T18:48:40.485Z,6.70
2018-07-03T18:51:09.171Z,5.17
2018-07-03T18:53:37.845Z,12.97
2018-07-03T18:56:06.774Z,9.77
2018-07-03T18:58:35.466Z,44.40
2018-07-03T19:01:04.252Z,35.10
2018-07-03T19:03:32.945Z,16.43
2018-07-03T19:06:01.932Z,78.67
2018-07-03T19:08:30.763Z,38.53
2018-07-03T19:10:59.550Z,40.77
2018-07-03T19:13:28.259Z,28.80
2018-07-03T19:15:57.028Z,21.73
2018-07-03T19:18:25.746Z,31.57
2018-07-03T19:20:54.477Z,15.70
2018-07-03T19:23:23.963Z,22.53
2018-07-03T19:25:52.636Z,12.93
2018-07-03T19:28:21.472Z,16.73
2018-07-03T19:30:50.134Z,9.20
2018-07-03T19:33:18.826Z,9.80
2018-07-03T19:35:47.512Z,7.90
2018-07-03T19:38:16.220Z,6.40
2018-07-03T19:40:44.989Z,6.40
2018-07-03T19:43:21.232Z,5.83
2018-07-03T19:45:51.083Z,7.63
2018-07-03T19:48:20.655Z,6.77
2018-07-03T19:50:50.724Z,4.90
2018-07-03T19:53:19.536Z,6.73
2018-07-03T19:55:49.430Z,5.97
2018-07-03T19:58:18.600Z,5.07
2018-07-03T20:00:48.090Z,8.10
2018-07-03T20:03:16.907Z,5.60
2018-07-03T20:05:45.695Z,5.50
2018-07-03T20:08:14.440Z,6.03
2018-07-03T20:10:43.276Z,6.60
2018-07-03T20:13:14.472Z,5.43
2018-07-03T20:15:43.918Z,4.93
2018-07-03T20:18:13.487Z,7.27
2018-07-03T20:20:42.318Z,4.77
2018-07-03T20:23:11.015Z,6.27
2018-07-03T20:25:40.156Z,4.60
2018-07-03T20:28:09.207Z,8.63
2018-07-03T20:30:38.140Z,7.00
2018-07-03T20:33:06.902Z,6.20
2018-07-03T20:35:35.662Z,8.00
2018-07-03T20:38:06.223Z,4.13
2018-07-03T20:40:54.259Z,6.43
2018-07-03T20:43:23.516Z,5.20
2018-07-03T20:45:52.280Z,43.10
2018-07-03T20:48:20.967Z,88.83
2018-07-03T20:50:49.679Z,106.70
2018-07-03T20:53:18.664Z,24.57
2018-07-03T20:55:47.874Z,11.23
2018-07-03T20:58:17.400Z,12.07
2018-07-03T21:00:46.054Z,5.77
2018-07-03T21:03:14.756Z,5.70
2018-07-03T21:05:44.093Z,33.87
2018-07-03T21:08:12.861Z,30.67
2018-07-03T21:10:41.620Z,11.33
2018-07-03T21:13:11.229Z,8.27
2018-07-03T21:15:40.250Z,8.67
2018-07-03T21:18:09.681Z,9.43
2018-07-03T21:20:39.296Z,5.60
2018-07-03T21:23:08.059Z,4.33
2018-07-03T21:25:36.756Z,9.17
2018-07-03T21:28:05.682Z,5.73
2018-07-03T21:30:34.367Z,5.10
2018-07-03T21:33:03.144Z,8.03
2018-07-03T21:35:31.911Z,7.80
2018-07-03T21:38:00.628Z,8.47
2018-07-03T21:40:29.389Z,7.50
2018-07-03T21:42:58.161Z,6.20
2018-07-03T21:45:26.926Z,5.43
2018-07-03T21:47:55.822Z,8.60
2018-07-03T21:50:24.831Z,5.60
2018-07-03T21:52:53.945Z,8.73
2018-07-03T21:55:23.269Z,8.73
2018-07-03T21:57:52.852Z,9.70
2018-07-03T22:00:36.205Z,6.60
2018-07-03T22:03:06.400Z,4.87
2018-07-03T22:05:35.652Z,5.23
2018-07-03T22:08:04.641Z,6.80
2018-07-03T22:10:33.760Z,7.20
2018-07-03T22:13:02.840Z,6.87
2018-07-03T22:15:31.727Z,12.90
2018-07-03T22:18:00.386Z,7.60
2018-07-03T22:20:30.057Z,8.77
2018-07-03T22:22:58.717Z,5.73
2018-07-03T22:25:27.604Z,7.90
2018-07-03T22:27:56.544Z,12.13
2018-07-03T22:30:25.403Z,6.63
2018-07-03T22:32:54.300Z,6.90
2018-07-03T22:35:23.062Z,10.33
2018-07-03T22:37:51.724Z,9.03
2018-07-03T22:40:20.473Z,9.93
2018-07-03T22:42:49.219Z,7.60
2018-07-03T22:45:18.098Z,8.07
2018-07-03T22:47:46.769Z,6.17
2018-07-03T22:50:15.471Z,5.07
2018-07-03T22:52:44.473Z,7.13
2018-07-03T22:55:13.160Z,5.97
2018-07-03T22:57:41.897Z,5.33
2018-07-03T23:00:10.623Z,4.60
2018-07-03T23:02:39.300Z,9.97
2018-07-03T23:05:08.014Z,7.70
2018-07-03T23:07:36.661Z,8.40
2018-07-03T23:10:05.344Z,7.73
2018-07-03T23:12:34.033Z,8.33
2018-07-03T23:15:02.728Z,7.10
2018-07-03T23:17:31.437Z,7.43
2018-07-03T23:20:00.107Z,8.93
2018-07-03T23:22:28.834Z,10.93
2018-07-03T23:24:57.524Z,8.43
2018-07-03T23:27:26.173Z,7.67
2018-07-03T23:29:54.872Z,8.57
2018-07-03T23:32:23.823Z,4.80
2018-07-03T23:34:52.464Z,6.20
2018-07-03T23:37:21.149Z,5.57
2018-07-03T23:39:49.836Z,5.33
2018-07-03T23:42:18.509Z,6.80
2018-07-03T23:44:47.172Z,4.93
2018-07-03T23:47:27.086Z,6.43
2018-07-03T23:50:07.059Z,10.83
2018-07-03T23:52:46.996Z,8.10
2018-07-03T23:55:27.082Z,7.30
2018-07-03T23:58:06.961Z,7.07
